sensor_id;sensor_type;location;lat;lon;timestamp;temperature;humidity
71942;DHT22;59997;53.300;-6.260;2022-09-01T00:01:53;12.51;99.60
71942;DHT22;59997;53.300;-6.260;2022-09-01T00:04:24;12.49;99.59
71942;DHT22;59997;53.300;-6.260;2022-09-01T00:06:53;12.50;99.61
71942;DHT22;59997;53.300;-6.260;2022-09-01T00:09:25;12.58;99.64
71942;DHT22;59997;53.300;-6.260;2022-09-01T00:11:52;12.63;99.59
71942;DHT22;59997;53.300;-6.260;2022-09-01T00:14:22;12.61;99.59
71942;DHT22;59997;53.300;-6.260;2022-09-01T00:16:48;12.63;99.67
71942;DHT22;59997;53.300;-6.260;2022-09-01T00:19:14;12.67;99.68
71942;DHT22;59997;53.300;-6.260;2022-09-01T00:21:42;12.73;99.66
71942;DHT22;59997;53.300;-6.260;2022-09-01T00:24:09;12.80;99.71
71942;DHT22;59997;53.300;-6.260;2022-09-01T00:26:34;12.91;99.67
71942;DHT22;59997;53.300;-6.260;2022-09-01T00:29:01;12.92;99.70
71942;DHT22;59997;53.300;-6.260;2022-09-01T00:31:26;12.92;99.70
71942;DHT22;59997;53.300;-6.260;2022-09-01T00:33:52;12.95;99.65
71942;DHT22;59997;53.300;-6.260;2022-09-01T00:36:19;13.00;99.69
71942;DHT22;59997;53.300;-6.260;2022-09-01T00:38:46;13.09;99.70
71942;DHT22;59997;53.300;-6.260;2022-09-01T00:41:14;13.16;99.70
71942;DHT22;59997;53.300;-6.260;2022-09-01T00:43:46;13.24;99.69
71942;DHT22;59997;53.300;-6.260;2022-09-01T00:46:19;13.26;99.68
71942;DHT22;59997;53.300;-6.260;2022-09-01T00:48:46;13.39;99.65
71942;DHT22;59997;53.300;-6.260;2022-09-01T00:51:15;13.51;99.59
71942;DHT22;59997;53.300;-6.260;2022-09-01T00:53:42;13.61;99.38
71942;DHT22;59997;53.300;-6.260;2022-09-01T00:56:08;13.61;99.36
71942;DHT22;59997;53.300;-6.260;2022-09-01T00:58:35;13.75;99.16
71942;DHT22;59997;53.300;-6.260;2022-09-01T01:01:03;13.83;98.80
71942;DHT22;59997;53.300;-6.260;2022-09-01T01:03:29;13.82;98.90
71942;DHT22;59997;53.300;-6.260;2022-09-01T01:05:57;13.81;98.97
71942;DHT22;59997;53.300;-6.260;2022-09-01T01:08:29;13.79;99.01
71942;DHT22;59997;53.300;-6.260;2022-09-01T01:11:03;13.82;99.00
71942;DHT22;59997;53.300;-6.260;2022-09-01T01:13:28;13.83;98.93
71942;DHT22;59997;53.300;-6.260;2022-09-01T01:15:57;13.87;98.78
71942;DHT22;59997;53.300;-6.260;2022-09-01T01:18:24;13.83;98.82
71942;DHT22;59997;53.300;-6.260;2022-09-01T01:21:05;13.75;98.86
71942;DHT22;59997;53.300;-6.260;2022-09-01T01:26:41;13.62;99.01
71942;DHT22;59997;53.300;-6.260;2022-09-01T01:29:06;13.61;99.01
71942;DHT22;59997;53.300;-6.260;2022-09-01T01:31:34;13.60;99.08
71942;DHT22;59997;53.300;-6.260;2022-09-01T01:34:00;13.60;99.06
71942;DHT22;59997;53.300;-6.260;2022-09-01T01:36:29;13.54;99.12
71942;DHT22;59997;53.300;-6.260;2022-09-01T01:38:59;13.54;99.16
71942;DHT22;59997;53.300;-6.260;2022-09-01T01:41:28;13.46;99.13
71942;DHT22;59997;53.300;-6.260;2022-09-01T01:43:56;13.40;99.13
71942;DHT22;59997;53.300;-6.260;2022-09-01T01:46:23;13.33;99.16
71942;DHT22;59997;53.300;-6.260;2022-09-01T01:48:49;13.32;99.22
71942;DHT22;59997;53.300;-6.260;2022-09-01T01:51:17;13.32;99.25
71942;DHT22;59997;53.300;-6.260;2022-09-01T01:53:45;13.30;99.28
71942;DHT22;59997;53.300;-6.260;2022-09-01T01:56:11;13.30;99.34
71942;DHT22;59997;53.300;-6.260;2022-09-01T01:58:37;13.33;99.35
71942;DHT22;59997;53.300;-6.260;2022-09-01T02:01:05;13.33;99.38
71942;DHT22;59997;53.300;-6.260;2022-09-01T02:03:33;13.30;99.41
71942;DHT22;59997;53.300;-6.260;2022-09-01T02:06:08;13.24;99.41
71942;DHT22;59997;53.300;-6.260;2022-09-01T02:08:35;13.27;99.42
71942;DHT22;59997;53.300;-6.260;2022-09-01T02:11:03;13.30;99.47
71942;DHT22;59997;53.300;-6.260;2022-09-01T02:13:29;13.27;99.47
71942;DHT22;59997;53.300;-6.260;2022-09-01T02:15:57;13.27;99.48
71942;DHT22;59997;53.300;-6.260;2022-09-01T02:18:27;13.30;99.50
71942;DHT22;59997;53.300;-6.260;2022-09-01T02:20:54;13.33;99.51
71942;DHT22;59997;53.300;-6.260;2022-09-01T02:23:21;13.34;99.52
71942;DHT22;59997;53.300;-6.260;2022-09-01T02:25:51;13.33;99.51
71942;DHT22;59997;53.300;-6.260;2022-09-01T02:28:20;13.36;99.53
71942;DHT22;59997;53.300;-6.260;2022-09-01T02:30:48;13.34;99.49
71942;DHT22;59997;53.300;-6.260;2022-09-01T02:33:17;13.32;99.49
71942;DHT22;59997;53.300;-6.260;2022-09-01T02:35:50;13.33;99.51
71942;DHT22;59997;53.300;-6.260;2022-09-01T02:38:16;13.27;99.49
71942;DHT22;59997;53.300;-6.260;2022-09-01T02:40:43;13.24;99.49
71942;DHT22;59997;53.300;-6.260;2022-09-01T02:43:10;13.22;99.50
71942;DHT22;59997;53.300;-6.260;2022-09-01T02:45:39;13.22;99.53
71942;DHT22;59997;53.300;-6.260;2022-09-01T02:48:08;13.19;99.61
71942;DHT22;59997;53.300;-6.260;2022-09-01T02:50:38;13.17;99.60
71942;DHT22;59997;53.300;-6.260;2022-09-01T02:53:04;13.17;99.58
71942;DHT22;59997;53.300;-6.260;2022-09-01T02:55:38;13.19;99.64
71942;DHT22;59997;53.300;-6.260;2022-09-01T02:58:04;13.13;99.59
71942;DHT22;59997;53.300;-6.260;2022-09-01T03:00:32;13.12;99.59
71942;DHT22;59997;53.300;-6.260;2022-09-01T03:03:08;13.10;99.57
71942;DHT22;59997;53.300;-6.260;2022-09-01T03:05:37;13.06;99.60
71942;DHT22;59997;53.300;-6.260;2022-09-01T03:08:09;13.06;99.58
71942;DHT22;59997;53.300;-6.260;2022-09-01T03:10:39;13.05;99.58
71942;DHT22;59997;53.300;-6.260;2022-09-01T03:13:11;13.03;99.58
71942;DHT22;59997;53.300;-6.260;2022-09-01T03:15:37;13.03;99.57
71942;DHT22;59997;53.300;-6.260;2022-09-01T03:18:05;13.02;99.63
71942;DHT22;59997;53.300;-6.260;2022-09-01T03:20:33;13.00;99.61
71942;DHT22;59997;53.300;-6.260;2022-09-01T03:23:00;12.99;99.65
71942;DHT22;59997;53.300;-6.260;2022-09-01T03:25:26;12.96;99.71
71942;DHT22;59997;53.300;-6.260;2022-09-01T03:27:54;12.99;99.79
71942;DHT22;59997;53.300;-6.260;2022-09-01T03:30:19;12.98;99.74
71942;DHT22;59997;53.300;-6.260;2022-09-01T03:32:45;12.96;99.75
71942;DHT22;59997;53.300;-6.260;2022-09-01T03:35:12;12.93;99.76
71942;DHT22;59997;53.300;-6.260;2022-09-01T03:37:38;12.93;99.87
71942;DHT22;59997;53.300;-6.260;2022-09-01T03:40:06;12.95;99.88
71942;DHT22;59997;53.300;-6.260;2022-09-01T03:42:34;12.99;99.95
71942;DHT22;59997;53.300;-6.260;2022-09-01T03:45:00;13.03;99.99
71942;DHT22;59997;53.300;-6.260;2022-09-01T03:47:27;13.08;99.99
71942;DHT22;59997;53.300;-6.260;2022-09-01T03:49:53;13.09;99.98
71942;DHT22;59997;53.300;-6.260;2022-09-01T03:52:19;13.13;99.94
71942;DHT22;59997;53.300;-6.260;2022-09-01T03:54:46;13.13;99.90
71942;DHT22;59997;53.300;-6.260;2022-09-01T03:57:15;13.09;99.93
71942;DHT22;59997;53.300;-6.260;2022-09-01T03:59:40;13.12;99.96
71942;DHT22;59997;53.300;-6.260;2022-09-01T04:02:08;13.17;99.99
71942;DHT22;59997;53.300;-6.260;2022-09-01T04:04:34;13.24;99.94
71942;DHT22;59997;53.300;-6.260;2022-09-01T04:06:59;13.26;99.88
71942;DHT22;59997;53.300;-6.260;2022-09-01T04:09:25;13.26;99.85
71942;DHT22;59997;53.300;-6.260;2022-09-01T04:11:51;13.20;99.84
71942;DHT22;59997;53.300;-6.260;2022-09-01T04:14:18;13.12;99.86
71942;DHT22;59997;53.300;-6.260;2022-09-01T04:16:43;13.03;99.84
71942;DHT22;59997;53.300;-6.260;2022-09-01T04:19:27;12.95;99.81
71942;DHT22;59997;53.300;-6.260;2022-09-01T04:21:56;12.84;99.77
71942;DHT22;59997;53.300;-6.260;2022-09-01T04:24:25;12.77;99.77
71942;DHT22;59997;53.300;-6.260;2022-09-01T04:26:53;12.65;99.74
71942;DHT22;59997;53.300;-6.260;2022-09-01T04:29:20;12.54;99.73
71942;DHT22;59997;53.300;-6.260;2022-09-01T04:32:08;12.43;99.71
71942;DHT22;59997;53.300;-6.260;2022-09-01T04:34:36;12.37;99.75
71942;DHT22;59997;53.300;-6.260;2022-09-01T04:37:10;12.34;99.84
71942;DHT22;59997;53.300;-6.260;2022-09-01T04:39:37;12.39;99.99
71942;DHT22;59997;53.300;-6.260;2022-09-01T04:42:03;12.41;99.99
71942;DHT22;59997;53.300;-6.260;2022-09-01T04:44:30;12.49;99.99
71942;DHT22;59997;53.300;-6.260;2022-09-01T04:46:55;12.57;99.99
71942;DHT22;59997;53.300;-6.260;2022-09-01T04:49:21;12.57;99.99
71942;DHT22;59997;53.300;-6.260;2022-09-01T04:51:51;12.53;99.99
71942;DHT22;59997;53.300;-6.260;2022-09-01T04:54:17;12.40;99.99
71942;DHT22;59997;53.300;-6.260;2022-09-01T04:56:46;12.33;99.99
71942;DHT22;59997;53.300;-6.260;2022-09-01T04:59:16;12.26;99.99
71942;DHT22;59997;53.300;-6.260;2022-09-01T05:01:44;12.29;99.99
71942;DHT22;59997;53.300;-6.260;2022-09-01T05:04:13;12.37;99.99
71942;DHT22;59997;53.300;-6.260;2022-09-01T05:06:45;12.50;99.99
71942;DHT22;59997;53.300;-6.260;2022-09-01T05:09:14;12.51;99.99
71942;DHT22;59997;53.300;-6.260;2022-09-01T05:11:41;12.46;99.99
71942;DHT22;59997;53.300;-6.260;2022-09-01T05:14:10;12.39;99.99
71942;DHT22;59997;53.300;-6.260;2022-09-01T05:16:37;12.33;99.99
71942;DHT22;59997;53.300;-6.260;2022-09-01T05:19:06;12.36;99.99
71942;DHT22;59997;53.300;-6.260;2022-09-01T05:21:39;12.34;99.99
71942;DHT22;59997;53.300;-6.260;2022-09-01T05:24:06;12.39;99.99
71942;DHT22;59997;53.300;-6.260;2022-09-01T05:26:33;12.41;99.99
71942;DHT22;59997;53.300;-6.260;2022-09-01T05:29:04;12.50;99.99
71942;DHT22;59997;53.300;-6.260;2022-09-01T05:31:34;12.56;99.99
71942;DHT22;59997;53.300;-6.260;2022-09-01T05:34:02;12.57;99.99
71942;DHT22;59997;53.300;-6.260;2022-09-01T05:36:29;12.53;99.99
71942;DHT22;59997;53.300;-6.260;2022-09-01T05:38:58;12.61;99.99
71942;DHT22;59997;53.300;-6.260;2022-09-01T05:41:25;12.68;99.99
71942;DHT22;59997;53.300;-6.260;2022-09-01T05:43:51;12.64;99.99
71942;DHT22;59997;53.300;-6.260;2022-09-01T05:46:23;12.58;99.99
71942;DHT22;59997;53.300;-6.260;2022-09-01T05:48:52;12.64;99.99
71942;DHT22;59997;53.300;-6.260;2022-09-01T05:51:20;12.58;99.99
71942;DHT22;59997;53.300;-6.260;2022-09-01T05:53:51;12.49;99.99
71942;DHT22;59997;53.300;-6.260;2022-09-01T05:56:19;12.43;99.99
71942;DHT22;59997;53.300;-6.260;2022-09-01T05:58:47;12.47;99.99
71942;DHT22;59997;53.300;-6.260;2022-09-01T06:01:21;12.49;99.99
71942;DHT22;59997;53.300;-6.260;2022-09-01T06:03:55;12.46;99.99
71942;DHT22;59997;53.300;-6.260;2022-09-01T06:06:33;12.44;99.99
71942;DHT22;59997;53.300;-6.260;2022-09-01T06:09:03;12.43;99.98
71942;DHT22;59997;53.300;-6.260;2022-09-01T06:11:29;12.46;99.99
71942;DHT22;59997;53.300;-6.260;2022-09-01T06:13:57;12.51;99.97
71942;DHT22;59997;53.300;-6.260;2022-09-01T06:16:25;12.61;99.97
71942;DHT22;59997;53.300;-6.260;2022-09-01T06:18:53;12.65;99.93
71942;DHT22;59997;53.300;-6.260;2022-09-01T06:21:20;12.73;99.91
71942;DHT22;59997;53.300;-6.260;2022-09-01T06:23:50;12.82;99.97
71942;DHT22;59997;53.300;-6.260;2022-09-01T06:26:28;12.92;99.99
71942;DHT22;59997;53.300;-6.260;2022-09-01T06:28:55;13.06;99.90
71942;DHT22;59997;53.300;-6.260;2022-09-01T06:31:23;13.23;99.79
71942;DHT22;59997;53.300;-6.260;2022-09-01T06:33:53;13.47;99.45
71942;DHT22;59997;53.300;-6.260;2022-09-01T06:36:22;13.61;99.34
71942;DHT22;59997;53.300;-6.260;2022-09-01T06:38:50;13.68;99.04
71942;DHT22;59997;53.300;-6.260;2022-09-01T06:41:18;13.77;98.81
71942;DHT22;59997;53.300;-6.260;2022-09-01T06:43:48;13.86;98.66
71942;DHT22;59997;53.300;-6.260;2022-09-01T06:46:15;13.96;98.17
71942;DHT22;59997;53.300;-6.260;2022-09-01T06:48:42;14.05;98.02
71942;DHT22;59997;53.300;-6.260;2022-09-01T06:51:20;14.12;98.16
71942;DHT22;59997;53.300;-6.260;2022-09-01T06:53:48;14.21;98.18
71942;DHT22;59997;53.300;-6.260;2022-09-01T06:56:21;14.27;98.17
71942;DHT22;59997;53.300;-6.260;2022-09-01T06:58:46;14.34;97.64
71942;DHT22;59997;53.300;-6.260;2022-09-01T07:01:17;14.45;97.16
71942;DHT22;59997;53.300;-6.260;2022-09-01T07:03:46;14.68;97.10
71942;DHT22;59997;53.300;-6.260;2022-09-01T07:06:12;14.86;96.70
71942;DHT22;59997;53.300;-6.260;2022-09-01T07:08:40;15.21;96.03
71942;DHT22;59997;53.300;-6.260;2022-09-01T07:11:16;15.72;93.68
71942;DHT22;59997;53.300;-6.260;2022-09-01T07:13:56;15.94;91.99
71942;DHT22;59997;53.300;-6.260;2022-09-01T07:16:24;16.08;92.28
71942;DHT22;59997;53.300;-6.260;2022-09-01T07:18:52;15.94;91.48
71942;DHT22;59997;53.300;-6.260;2022-09-01T07:21:20;15.94;91.68
71942;DHT22;59997;53.300;-6.260;2022-09-01T07:23:46;15.99;91.71
71942;DHT22;59997;53.300;-6.260;2022-09-01T07:26:12;16.17;91.05
71942;DHT22;59997;53.300;-6.260;2022-09-01T07:28:44;16.29;90.10
71942;DHT22;59997;53.300;-6.260;2022-09-01T07:31:17;16.40;89.59
71942;DHT22;59997;53.300;-6.260;2022-09-01T07:33:45;16.40;89.20
71942;DHT22;59997;53.300;-6.260;2022-09-01T07:36:16;16.40;89.30
71942;DHT22;59997;53.300;-6.260;2022-09-01T07:38:44;16.38;88.61
71942;DHT22;59997;53.300;-6.260;2022-09-01T07:41:11;16.47;89.29
71942;DHT22;59997;53.300;-6.260;2022-09-01T07:43:40;16.45;87.43
71942;DHT22;59997;53.300;-6.260;2022-09-01T07:46:09;16.59;87.62
71942;DHT22;59997;53.300;-6.260;2022-09-01T07:48:35;16.80;87.47
71942;DHT22;59997;53.300;-6.260;2022-09-01T07:51:00;16.80;86.20
71942;DHT22;59997;53.300;-6.260;2022-09-01T07:53:28;16.81;87.02
71942;DHT22;59997;53.300;-6.260;2022-09-01T07:55:58;16.72;86.37
71942;DHT22;59997;53.300;-6.260;2022-09-01T07:58:27;16.62;87.37
71942;DHT22;59997;53.300;-6.260;2022-09-01T08:00:54;16.51;87.00
71942;DHT22;59997;53.300;-6.260;2022-09-01T08:03:22;16.44;87.77
71942;DHT22;59997;53.300;-6.260;2022-09-01T08:05:49;16.45;87.10
71942;DHT22;59997;53.300;-6.260;2022-09-01T08:08:18;16.52;86.46
71942;DHT22;59997;53.300;-6.260;2022-09-01T08:10:45;16.51;86.26
71942;DHT22;59997;53.300;-6.260;2022-09-01T08:13:11;16.63;86.33
71942;DHT22;59997;53.300;-6.260;2022-09-01T08:15:40;16.80;85.86
71942;DHT22;59997;53.300;-6.260;2022-09-01T08:18:06;17.03;85.65
71942;DHT22;59997;53.300;-6.260;2022-09-01T08:20:33;17.27;84.14
71942;DHT22;59997;53.300;-6.260;2022-09-01T08:23:04;17.50;83.95
71942;DHT22;59997;53.300;-6.260;2022-09-01T08:25:31;17.91;81.45
71942;DHT22;59997;53.300;-6.260;2022-09-01T08:27:57;18.29;80.13
71942;DHT22;59997;53.300;-6.260;2022-09-01T08:30:22;18.24;78.73
71942;DHT22;59997;53.300;-6.260;2022-09-01T08:32:48;18.46;79.29
71942;DHT22;59997;53.300;-6.260;2022-09-01T08:35:14;18.26;77.97
71942;DHT22;59997;53.300;-6.260;2022-09-01T08:37:41;18.31;78.57
71942;DHT22;59997;53.300;-6.260;2022-09-01T08:40:13;18.26;78.50
71942;DHT22;59997;53.300;-6.260;2022-09-01T08:45:30;18.07;79.20
71942;DHT22;59997;53.300;-6.260;2022-09-01T08:48:05;18.01;79.71
71942;DHT22;59997;53.300;-6.260;2022-09-01T08:50:32;17.93;79.85
71942;DHT22;59997;53.300;-6.260;2022-09-01T08:55:55;18.38;78.06
71942;DHT22;59997;53.300;-6.260;2022-09-01T08:58:22;18.75;76.54
71942;DHT22;59997;53.300;-6.260;2022-09-01T09:00:55;18.97;76.35
71942;DHT22;59997;53.300;-6.260;2022-09-01T09:06:17;19.92;73.28
71942;DHT22;59997;53.300;-6.260;2022-09-01T09:11:40;20.54;70.75
71942;DHT22;59997;53.300;-6.260;2022-09-01T09:14:44;20.95;68.35
71942;DHT22;59997;53.300;-6.260;2022-09-01T09:17:13;20.68;70.73
71942;DHT22;59997;53.300;-6.260;2022-09-01T09:19:43;20.96;69.99
71942;DHT22;59997;53.300;-6.260;2022-09-01T09:22:15;21.15;68.10
71942;DHT22;59997;53.300;-6.260;2022-09-01T09:27:36;22.20;65.64
71942;DHT22;59997;53.300;-6.260;2022-09-01T09:32:56;22.54;63.95
71942;DHT22;59997;53.300;-6.260;2022-09-01T09:41:15;22.86;61.05
71942;DHT22;59997;53.300;-6.260;2022-09-01T09:44:04;23.96;58.50
71942;DHT22;59997;53.300;-6.260;2022-09-01T09:49:22;24.00;58.07
71942;DHT22;59997;53.300;-6.260;2022-09-01T09:52:12;23.55;59.68
71942;DHT22;59997;53.300;-6.260;2022-09-01T09:55:05;23.66;60.07
71942;DHT22;59997;53.300;-6.260;2022-09-01T09:57:31;24.07;58.95
71942;DHT22;59997;53.300;-6.260;2022-09-01T10:00:29;24.47;56.50
71942;DHT22;59997;53.300;-6.260;2022-09-01T10:02:58;24.20;57.31
71942;DHT22;59997;53.300;-6.260;2022-09-01T10:05:46;23.85;57.79
71942;DHT22;59997;53.300;-6.260;2022-09-01T10:10:54;24.00;58.44
71942;DHT22;59997;53.300;-6.260;2022-09-01T10:13:22;23.68;58.26
71942;DHT22;59997;53.300;-6.260;2022-09-01T10:15:54;23.55;61.34
71942;DHT22;59997;53.300;-6.260;2022-09-01T10:18:28;23.96;59.32
71942;DHT22;59997;53.300;-6.260;2022-09-01T10:23:52;24.31;57.60
71942;DHT22;59997;53.300;-6.260;2022-09-01T10:26:23;23.52;58.76
71942;DHT22;59997;53.300;-6.260;2022-09-01T10:28:56;23.50;59.93
71942;DHT22;59997;53.300;-6.260;2022-09-01T10:31:24;23.65;57.73
71942;DHT22;59997;53.300;-6.260;2022-09-01T10:33:51;23.55;59.41
71942;DHT22;59997;53.300;-6.260;2022-09-01T10:36:17;24.20;58.07
71942;DHT22;59997;53.300;-6.260;2022-09-01T10:38:43;24.76;55.94
71942;DHT22;59997;53.300;-6.260;2022-09-01T10:41:49;24.83;56.79
71942;DHT22;59997;53.300;-6.260;2022-09-01T10:44:24;25.37;54.24
71942;DHT22;59997;53.300;-6.260;2022-09-01T10:46:55;25.21;56.08
71942;DHT22;59997;53.300;-6.260;2022-09-01T10:51:54;24.18;57.37
71942;DHT22;59997;53.300;-6.260;2022-09-01T11:09:03;24.41;56.51
71942;DHT22;59997;53.300;-6.260;2022-09-01T11:11:35;24.82;56.14
71942;DHT22;59997;53.300;-6.260;2022-09-01T11:14:16;24.73;56.16
71942;DHT22;59997;53.300;-6.260;2022-09-01T11:17:16;24.61;56.15
71942;DHT22;59997;53.300;-6.260;2022-09-01T11:19:44;24.07;56.11
71942;DHT22;59997;53.300;-6.260;2022-09-01T11:22:36;24.51;56.41
71942;DHT22;59997;53.300;-6.260;2022-09-01T11:25:41;23.57;58.67
71942;DHT22;59997;53.300;-6.260;2022-09-01T11:33:55;22.93;58.88
71942;DHT22;59997;53.300;-6.260;2022-09-01T11:36:44;22.57;60.72
71942;DHT22;59997;53.300;-6.260;2022-09-01T11:47:02;24.07;57.11
71942;DHT22;59997;53.300;-6.260;2022-09-01T11:50:26;23.90;55.92
71942;DHT22;59997;53.300;-6.260;2022-09-01T11:52:55;23.16;58.67
71942;DHT22;59997;53.300;-6.260;2022-09-01T11:55:31;22.79;60.18
71942;DHT22;59997;53.300;-6.260;2022-09-01T11:57:57;22.85;59.61
71942;DHT22;59997;53.300;-6.260;2022-09-01T12:00:29;22.89;59.06
71942;DHT22;59997;53.300;-6.260;2022-09-01T12:02:55;23.20;58.85
71942;DHT22;59997;53.300;-6.260;2022-09-01T12:05:30;23.90;58.64
71942;DHT22;59997;53.300;-6.260;2022-09-01T12:07:56;23.99;56.58
71942;DHT22;59997;53.300;-6.260;2022-09-01T12:13:00;23.72;58.13
71942;DHT22;59997;53.300;-6.260;2022-09-01T12:15:25;23.71;58.02
71942;DHT22;59997;53.300;-6.260;2022-09-01T12:17:52;23.19;58.33
71942;DHT22;59997;53.300;-6.260;2022-09-01T12:20:33;23.33;58.39
71942;DHT22;59997;53.300;-6.260;2022-09-01T12:23:00;22.68;60.90
71942;DHT22;59997;53.300;-6.260;2022-09-01T12:25:32;22.51;60.45
71942;DHT22;59997;53.300;-6.260;2022-09-01T12:28:02;22.10;62.38
71942;DHT22;59997;53.300;-6.260;2022-09-01T12:30:31;23.13;61.20
71942;DHT22;59997;53.300;-6.260;2022-09-01T12:33:01;23.65;58.66
71942;DHT22;59997;53.300;-6.260;2022-09-01T12:35:27;22.88;58.99
71942;DHT22;59997;53.300;-6.260;2022-09-01T12:38:22;22.57;60.86
71942;DHT22;59997;53.300;-6.260;2022-09-01T12:40:53;23.26;58.82
71942;DHT22;59997;53.300;-6.260;2022-09-01T12:43:45;23.26;57.73
71942;DHT22;59997;53.300;-6.260;2022-09-01T12:46:11;23.10;59.14
71942;DHT22;59997;53.300;-6.260;2022-09-01T12:48:39;22.69;60.77
71942;DHT22;59997;53.300;-6.260;2022-09-01T12:51:20;22.55;60.78
71942;DHT22;59997;53.300;-6.260;2022-09-01T12:53:54;22.88;60.21
71942;DHT22;59997;53.300;-6.260;2022-09-01T12:56:32;22.44;61.18
71942;DHT22;59997;53.300;-6.260;2022-09-01T13:01:36;23.41;60.38
71942;DHT22;59997;53.300;-6.260;2022-09-01T13:04:27;23.79;57.26
71942;DHT22;59997;53.300;-6.260;2022-09-01T13:07:00;23.27;57.79
71942;DHT22;59997;53.300;-6.260;2022-09-01T13:09:26;22.92;59.29
71942;DHT22;59997;53.300;-6.260;2022-09-01T13:11:51;22.85;59.80
71942;DHT22;59997;53.300;-6.260;2022-09-01T13:14:17;22.99;59.93
71942;DHT22;59997;53.300;-6.260;2022-09-01T13:16:43;22.79;59.89
71942;DHT22;59997;53.300;-6.260;2022-09-01T13:19:09;22.23;60.49
71942;DHT22;59997;53.300;-6.260;2022-09-01T13:21:35;21.59;63.69
71942;DHT22;59997;53.300;-6.260;2022-09-01T13:24:02;22.02;62.57
71942;DHT22;59997;53.300;-6.260;2022-09-01T13:26:29;22.59;61.55
71942;DHT22;59997;53.300;-6.260;2022-09-01T13:28:56;22.96;60.88
71942;DHT22;59997;53.300;-6.260;2022-09-01T13:31:21;23.61;59.08
71942;DHT22;59997;53.300;-6.260;2022-09-01T13:33:47;23.40;59.27
71942;DHT22;59997;53.300;-6.260;2022-09-01T13:36:13;22.39;60.62
71942;DHT22;59997;53.300;-6.260;2022-09-01T13:38:39;22.34;61.21
71942;DHT22;59997;53.300;-6.260;2022-09-01T13:41:05;21.40;63.50
71942;DHT22;59997;53.300;-6.260;2022-09-01T13:43:33;21.74;63.41
71942;DHT22;59997;53.300;-6.260;2022-09-01T13:45:59;22.65;61.81
71942;DHT22;59997;53.300;-6.260;2022-09-01T13:48:25;23.20;58.28
71942;DHT22;59997;53.300;-6.260;2022-09-01T13:50:53;21.82;61.89
71942;DHT22;59997;53.300;-6.260;2022-09-01T13:53:19;22.18;61.47
71942;DHT22;59997;53.300;-6.260;2022-09-01T13:55:45;22.78;60.22
71942;DHT22;59997;53.300;-6.260;2022-09-01T13:58:10;22.79;61.28
71942;DHT22;59997;53.300;-6.260;2022-09-01T14:00:38;23.55;59.97
71942;DHT22;59997;53.300;-6.260;2022-09-01T14:03:07;23.52;58.03
71942;DHT22;59997;53.300;-6.260;2022-09-01T14:05:41;23.90;55.70
71942;DHT22;59997;53.300;-6.260;2022-09-01T14:08:09;23.82;55.62
71942;DHT22;59997;53.300;-6.260;2022-09-01T14:10:41;24.31;55.81
71942;DHT22;59997;53.300;-6.260;2022-09-01T14:13:08;24.65;53.78
71942;DHT22;59997;53.300;-6.260;2022-09-01T14:15:34;24.31;54.27
71942;DHT22;59997;53.300;-6.260;2022-09-01T14:18:01;24.24;57.66
71942;DHT22;59997;53.300;-6.260;2022-09-01T14:20:30;24.12;53.95
71942;DHT22;59997;53.300;-6.260;2022-09-01T14:22:56;23.75;55.59
71942;DHT22;59997;53.300;-6.260;2022-09-01T14:25:22;24.07;56.14
71942;DHT22;59997;53.300;-6.260;2022-09-01T14:27:48;23.90;56.35
71942;DHT22;59997;53.300;-6.260;2022-09-01T14:30:20;22.92;55.19
71942;DHT22;59997;53.300;-6.260;2022-09-01T14:32:46;22.59;55.63
71942;DHT22;59997;53.300;-6.260;2022-09-01T14:35:12;22.41;57.91
71942;DHT22;59997;53.300;-6.260;2022-09-01T14:37:39;22.40;55.76
71942;DHT22;59997;53.300;-6.260;2022-09-01T14:40:05;22.29;55.42
71942;DHT22;59997;53.300;-6.260;2022-09-01T14:42:33;21.91;55.73
71942;DHT22;59997;53.300;-6.260;2022-09-01T14:44:59;21.92;58.12
71942;DHT22;59997;53.300;-6.260;2022-09-01T14:47:26;22.44;55.95
71942;DHT22;59997;53.300;-6.260;2022-09-01T14:49:52;22.64;55.18
71942;DHT22;59997;53.300;-6.260;2022-09-01T14:52:18;22.44;55.67
71942;DHT22;59997;53.300;-6.260;2022-09-01T14:54:46;22.85;56.56
71942;DHT22;59997;53.300;-6.260;2022-09-01T14:57:12;22.39;54.84
71942;DHT22;59997;53.300;-6.260;2022-09-01T14:59:38;22.40;55.75
71942;DHT22;59997;53.300;-6.260;2022-09-01T15:02:04;22.52;55.16
71942;DHT22;59997;53.300;-6.260;2022-09-01T15:04:30;22.99;55.83
71942;DHT22;59997;53.300;-6.260;2022-09-01T15:06:56;22.51;56.61
71942;DHT22;59997;53.300;-6.260;2022-09-01T15:09:21;22.69;55.28
71942;DHT22;59997;53.300;-6.260;2022-09-01T15:11:47;22.32;57.81
71942;DHT22;59997;53.300;-6.260;2022-09-01T15:14:12;22.64;56.97
71942;DHT22;59997;53.300;-6.260;2022-09-01T15:16:38;22.71;56.71
71942;DHT22;59997;53.300;-6.260;2022-09-01T15:19:10;22.16;57.23
71942;DHT22;59997;53.300;-6.260;2022-09-01T15:21:38;21.61;59.60
71942;DHT22;59997;53.300;-6.260;2022-09-01T15:24:06;21.16;61.63
71942;DHT22;59997;53.300;-6.260;2022-09-01T15:26:33;21.43;60.85
71942;DHT22;59997;53.300;-6.260;2022-09-01T15:28:59;21.71;60.18
71942;DHT22;59997;53.300;-6.260;2022-09-01T15:31:27;21.57;61.66
71942;DHT22;59997;53.300;-6.260;2022-09-01T15:33:56;21.15;62.88
71942;DHT22;59997;53.300;-6.260;2022-09-01T15:36:24;20.79;63.51
71942;DHT22;59997;53.300;-6.260;2022-09-01T15:38:50;20.15;66.60
71942;DHT22;59997;53.300;-6.260;2022-09-01T15:41:26;20.06;66.74
71942;DHT22;59997;53.300;-6.260;2022-09-01T15:43:53;19.68;68.15
71942;DHT22;59997;53.300;-6.260;2022-09-01T15:46:20;19.45;69.02
71942;DHT22;59997;53.300;-6.260;2022-09-01T15:48:46;19.15;69.69
71942;DHT22;59997;53.300;-6.260;2022-09-01T15:51:25;19.00;70.28
71942;DHT22;59997;53.300;-6.260;2022-09-01T15:53:56;18.83;70.54
71942;DHT22;59997;53.300;-6.260;2022-09-01T15:56:22;18.59;71.42
71942;DHT22;59997;53.300;-6.260;2022-09-01T15:58:49;18.55;72.10
71942;DHT22;59997;53.300;-6.260;2022-09-01T16:01:16;18.38;72.09
71942;DHT22;59997;53.300;-6.260;2022-09-01T16:03:42;18.15;73.13
71942;DHT22;59997;53.300;-6.260;2022-09-01T16:06:08;18.16;73.61
71942;DHT22;59997;53.300;-6.260;2022-09-01T16:08:34;18.14;73.74
71942;DHT22;59997;53.300;-6.260;2022-09-01T16:11:00;18.05;74.60
71942;DHT22;59997;53.300;-6.260;2022-09-01T16:13:26;18.08;74.53
71942;DHT22;59997;53.300;-6.260;2022-09-01T16:19:11;17.84;75.87
71942;DHT22;59997;53.300;-6.260;2022-09-01T16:24:11;17.69;76.25
71942;DHT22;59997;53.300;-6.260;2022-09-01T16:26:38;17.72;76.62
71942;DHT22;59997;53.300;-6.260;2022-09-01T16:29:11;17.79;76.35
71942;DHT22;59997;53.300;-6.260;2022-09-01T16:31:39;17.66;76.14
71942;DHT22;59997;53.300;-6.260;2022-09-01T16:34:14;17.56;76.97
71942;DHT22;59997;53.300;-6.260;2022-09-01T16:39:45;17.55;76.55
71942;DHT22;59997;53.300;-6.260;2022-09-01T16:48:06;17.63;76.75
71942;DHT22;59997;53.300;-6.260;2022-09-01T16:59:36;17.69;76.33
71942;DHT22;59997;53.300;-6.260;2022-09-01T17:02:11;17.70;77.06
71942;DHT22;59997;53.300;-6.260;2022-09-01T17:04:51;17.53;76.39